Time;durP1;ratioP1;P1;durP2;ratioP2;P2;SDS_P1;SDS_P2;PMS_P1;PMS_P2;Temp;Humidity;BMP_temperature;BMP_pressure;BME280_temperature;BME280_humidity;BME280_pressure;Samples;Min_cycle;Max_cycle;Signal;HPM_P1;HPM_P2
2021/04/26 00:00:05;;;;;;;;;;;;;;;7.26;64.05;100108.59;1781157;79;21387;-61
2021/04/26 00:02:35;;;;;;;;;;;;;;;7.16;64.42;100105.81;1783453;79;20236;-60
2021/04/26 00:05:05;;;;;;;;;;;;;;;7.05;64.65;100106.38;1783343;79;20332;-61
2021/04/26 00:07:34;;;;;;;;;;;;;;;7.02;64.77;100116.13;1785696;79;20116;-59
2021/04/26 00:10:02;;;;;;;;;;;;;;;7.06;64.81;100108.56;1785229;79;20214;-60
2021/04/26 00:12:31;;;;;;;;;;;;;;;7.11;64.71;100108.77;1786884;78;21252;-61
2021/04/26 00:15:06;;;;;;;;;;;;;;;7.09;64.72;100102.30;1784191;78;20489;-61
2021/04/26 00:17:34;;;;;;;;;;;;;;;7.04;64.79;100106.59;1785746;78;20216;-61
2021/04/26 00:20:06;;;;;;;;;;;;;;;7.01;64.85;100097.98;1783055;78;20387;-61
2021/04/26 00:22:35;;;;;;;;;;;;;;;7.05;64.87;100093.06;1782635;79;20215;-62
2021/04/26 00:25:06;;;;;;;;;;;;;;;7.10;64.80;100093.29;1784636;79;22054;-63
2021/04/26 00:27:35;;;;;;;;;;;;;;;7.16;64.77;100089.00;1788467;79;20499;-61
2021/04/26 00:30:09;;;;;;;;;;;;;;;7.10;64.75;100084.48;1696075;82;20278;-61
2021/04/26 00:32:36;;;;;;;;;;;;;;;7.06;64.90;100084.05;1693374;82;20293;-61
2021/04/26 00:35:07;;;;;;;;;;;;;;;7.06;65.00;100089.38;1697929;82;20576;-61
2021/04/26 00:37:35;;;;;;;;;;;;;;;7.11;64.97;100087.44;1694912;82;21213;-60
2021/04/26 00:40:06;;;;;;;;;;;;;;;7.13;64.86;100092.88;1694359;82;20353;-61
2021/04/26 00:42:41;;;;;;;;;;;;;;;7.21;64.76;100082.53;1827646;77;20215;-60
2021/04/26 00:45:12;;;;;;;;;;;;;;;7.22;64.65;100073.52;1798870;79;20131;-60
2021/04/26 00:47:40;;;;;;;;;;;;;;;7.30;64.54;100072.50;1798947;78;21192;-60
2021/04/26 00:50:11;;;;;;;;;;;;;;;7.39;64.21;100067.30;1795564;79;20151;-60
2021/04/26 00:52:39;;;;;;;;;;;;;;;7.44;63.63;100068.02;1792747;79;20130;-59
2021/04/26 00:55:08;;;;;;;;;;;;;;;7.44;62.61;100066.67;1793558;79;20225;-60
2021/04/26 00:57:35;;;;;;;;;;;;;;;7.36;61.75;100067.18;1789215;79;20782;-60
2021/04/26 01:00:06;;;;;;;;;;;;;;;7.27;61.43;100064.91;1786727;79;22087;-60
2021/04/26 01:02:34;;;;;;;;;;;;;;;7.16;61.48;100060.48;1756558;79;20525;-59
2021/04/26 01:05:08;;;;;;;;;;;;;;;7.07;61.58;100057.71;1787384;79;20227;-60
2021/04/26 01:07:38;;;;;;;;;;;;;;;7.04;62.07;100065.27;1787021;79;20168;-60
2021/04/26 01:10:07;;;;;;;;;;;;;;;6.99;62.46;100057.39;1788807;79;20538;-59
2021/04/26 01:13:06;;;;;;;;;;;;;;;6.99;62.45;100048.56;1774260;79;22131;-59
2021/04/26 01:15:57;;;;;;;;;;;;;;;6.95;62.32;100048.65;1792605;79;20300;-60
2021/04/26 01:18:51;;;;;;;;;;;;;;;6.89;61.99;100039.64;1788667;79;20148;-59
2021/04/26 01:21:25;;;;;;;;;;;;;;;6.81;61.82;100034.48;1791087;79;20245;-59
2021/04/26 01:24:23;;;;;;;;;;;;;;;6.76;61.77;100034.28;1788057;79;20300;-59
2021/04/26 01:27:03;;;;;;;;;;;;;;;6.68;61.74;100033.94;1789088;79;21384;-59
2021/04/26 01:29:58;;;;;;;;;;;;;;;6.59;61.93;100027.16;1721816;79;20267;-59
2021/04/26 01:32:39;;;;;;;;;;;;;;;6.54;62.09;100022.42;1788470;79;20117;-59
2021/04/26 01:35:11;;;;;;;;;;;;;;;6.47;62.27;100023.72;1792642;79;20593;-59
2021/04/26 01:37:38;;;;;;;;;;;;;;;6.43;62.46;100020.33;1788382;79;20223;-58
2021/04/26 01:40:11;;;;;;;;;;;;;;;6.37;62.61;100018.47;1787482;79;21379;-62
2021/04/26 01:42:40;;;;;;;;;;;;;;;6.34;62.79;100023.67;1785018;79;20141;-59
2021/04/26 01:45:10;;;;;;;;;;;;;;;6.32;62.96;100029.72;1786235;79;20125;-59
2021/04/26 01:47:38;;;;;;;;;;;;;;;6.27;63.16;100023.66;1755800;79;20213;-60
2021/04/26 01:50:07;;;;;;;;;;;;;;;6.24;63.36;100014.74;1785996;79;20156;-61
2021/04/26 01:52:36;;;;;;;;;;;;;;;6.25;63.49;100007.56;1783374;79;21208;-59
2021/04/26 01:55:05;;;;;;;;;;;;;;;6.25;63.59;100002.25;1784958;78;20227;-59
2021/04/26 01:57:35;;;;;;;;;;;;;;;6.24;63.67;99994.78;1792135;80;20132;-59
2021/04/26 02:00:18;;;;;;;;;;;;;;;6.29;63.75;99983.01;1813225;77;20265;-61
2021/04/26 02:02:48;;;;;;;;;;;;;;;6.26;63.92;99981.27;1815706;78;20461;-60
2021/04/26 02:05:17;;;;;;;;;;;;;;;6.26;64.01;99974.09;1826686;78;21188;-61
2021/04/26 02:07:49;;;;;;;;;;;;;;;6.27;64.11;99977.08;1769624;78;20619;-61
2021/04/26 02:10:20;;;;;;;;;;;;;;;6.29;64.23;99994.98;1823615;78;20497;-61
2021/04/26 02:12:49;;;;;;;;;;;;;;;6.29;64.34;99992.84;1824483;78;20179;-59
2021/04/26 02:15:19;;;;;;;;;;;;;;;6.28;64.57;99993.34;1824564;78;20202;-61
2021/04/26 02:17:47;;;;;;;;;;;;;;;6.30;64.92;99992.64;1824602;78;22231;-61
2021/04/26 02:20:17;;;;;;;;;;;;;;;6.33;65.03;99993.25;1826555;78;20135;-60
2021/04/26 02:22:47;;;;;;;;;;;;;;;6.34;64.98;99985.06;1827408;78;20157;-62
2021/04/26 02:25:15;;;;;;;;;;;;;;;6.33;64.96;99979.94;1824425;78;20235;-61
2021/04/26 02:27:43;;;;;;;;;;;;;;;6.31;65.00;99977.48;1826891;78;20292;-59
2021/04/26 02:30:12;;;;;;;;;;;;;;;6.29;64.83;99976.88;1794036;78;21195;-60
2021/04/26 02:32:50;;;;;;;;;;;;;;;6.27;64.79;99973.57;1826707;78;20147;-59
2021/04/26 02:35:35;;;;;;;;;;;;;;;6.24;64.82;99971.31;1787732;77;20164;-60
2021/04/26 02:38:05;;;;;;;;;;;;;;;6.18;64.98;99958.80;1826500;78;20249;-60
2021/04/26 02:40:41;;;;;;;;;;;;;;;6.16;64.80;99951.02;1826692;78;20226;-59
2021/04/26 02:43:09;;;;;;;;;;;;;;;6.15;64.82;99942.71;1826567;78;22196;-60
2021/04/26 02:45:42;;;;;;;;;;;;;;;6.15;64.91;99946.70;1826147;78;20238;-61
2021/04/26 02:48:12;;;;;;;;;;;;;;;6.14;65.14;99927.27;1827377;78;20151;-61
2021/04/26 02:50:41;;;;;;;;;;;;;;;6.13;65.51;99922.14;1818729;78;20217;-60
2021/04/26 02:53:12;;;;;;;;;;;;;;;6.19;65.76;99912.02;1815308;78;20516;-61
2021/04/26 02:55:40;;;;;;;;;;;;;;;6.26;65.98;99918.19;1810108;79;21446;-59
2021/04/26 02:58:08;;;;;;;;;;;;;;;6.35;65.99;99928.14;1814350;78;20283;-59
2021/04/26 03:00:36;;;;;;;;;;;;;;;6.44;65.84;99937.58;1803576;79;20132;-60
2021/04/26 03:03:06;;;;;;;;;;;;;;;6.54;65.64;99939.05;1799554;79;20175;-60
2021/04/26 03:05:34;;;;;;;;;;;;;;;6.61;65.44;99934.05;1800400;79;20215;-60
2021/04/26 03:08:03;;;;;;;;;;;;;;;6.68;65.24;99914.58;1800628;79;21341;-59
2021/04/26 03:10:31;;;;;;;;;;;;;;;6.74;64.94;99908.43;1782355;79;20215;-60
2021/04/26 03:12:59;;;;;;;;;;;;;;;6.78;64.72;99898.48;1782638;79;20237;-59
2021/04/26 03:15:28;;;;;;;;;;;;;;;6.81;64.57;99898.08;1802759;79;20133;-60
2021/04/26 03:17:56;;;;;;;;;;;;;;;6.85;64.37;99903.83;1802919;79;20177;-60
2021/04/26 03:20:24;;;;;;;;;;;;;;;6.88;64.12;99901.28;1778457;79;21405;-60
2021/04/26 03:22:54;;;;;;;;;;;;;;;6.90;63.94;99901.87;1785010;79;20259;-59
2021/04/26 03:25:22;;;;;;;;;;;;;;;6.90;63.78;99901.36;1802882;79;20128;-60
2021/04/26 03:27:51;;;;;;;;;;;;;;;6.91;63.59;99909.67;1799651;79;20258;-61
2021/04/26 03:30:22;;;;;;;;;;;;;;;6.93;63.45;99906.80;1756167;79;20248;-60
2021/04/26 03:32:51;;;;;;;;;;;;;;;6.92;63.27;99900.66;1799902;79;22119;-60
2021/04/26 03:35:20;;;;;;;;;;;;;;;6.92;63.16;99903.81;1802793;79;20248;-60
2021/04/26 03:37:50;;;;;;;;;;;;;;;6.90;63.08;99903.22;1802986;78;20214;-60
2021/04/26 03:40:23;;;;;;;;;;;;;;;6.88;63.09;99913.27;1798995;79;20211;-61
2021/04/26 03:42:54;;;;;;;;;;;;;;;6.85;63.06;99914.48;1799367;79;20195;-61
2021/04/26 03:45:23;;;;;;;;;;;;;;;6.81;63.08;99911.92;1781224;79;21272;-59
2021/04/26 03:47:55;;;;;;;;;;;;;;;6.76;63.08;99901.87;1768268;79;20244;-59
2021/04/26 03:50:27;;;;;;;;;;;;;;;6.72;63.20;99887.32;1799860;79;20286;-61
2021/04/26 03:53:05;;;;;;;;;;;;;;;6.70;63.36;99876.56;1806562;79;20131;-60
2021/04/26 03:55:52;;;;;;;;;;;;;;;6.66;63.78;99870.83;1802991;79;20231;-60
2021/04/26 03:58:20;;;;;;;;;;;;;;;6.68;63.82;99873.29;1802881;79;21149;-60
2021/04/26 04:00:48;;;;;;;;;;;;;;;6.71;63.93;99871.55;1799741;79;20214;-59
2021/04/26 04:03:17;;;;;;;;;;;;;;;6.74;64.08;99889.78;1800345;79;20148;-60
2021/04/26 04:05:45;;;;;;;;;;;;;;;6.75;64.43;99900.75;1802878;79;20245;-59
2021/04/26 04:08:27;;;;;;;;;;;;;;;6.76;64.56;99910.40;1801638;78;20285;-60
2021/04/26 04:10:57;;;;;;;;;;;;;;;6.75;64.52;99898.09;1802499;79;22289;-60
2021/04/26 04:13:34;;;;;;;;;;;;;;;6.75;64.56;99890.91;1800863;79;20188;-60
2021/04/26 04:16:04;;;;;;;;;;;;;;;6.76;64.72;99897.88;1802515;79;20351;-61
2021/04/26 04:18:32;;;;;;;;;;;;;;;6.76;64.91;99908.55;1797609;79;20308;-60
2021/04/26 04:21:00;;;;;;;;;;;;;;;6.76;65.12;99913.87;1800522;79;20223;-61
2021/04/26 04:23:29;;;;;;;;;;;;;;;6.76;65.35;99915.72;1802890;79;21422;-59
2021/04/26 04:25:57;;;;;;;;;;;;;;;6.78;65.68;99922.98;1802885;79;20112;-60
2021/04/26 04:28:26;;;;;;;;;;;;;;;6.78;65.97;99917.14;1710591;83;20263;-60
2021/04/26 04:30:54;;;;;;;;;;;;;;;6.79;66.17;99917.45;1710611;84;20281;-61
2021/04/26 04:33:38;;;;;;;;;;;;;;;6.83;66.30;99913.36;1828215;77;20192;-60
2021/04/26 04:36:23;;;;;;;;;;;;;;;6.78;66.41;99904.34;1802145;78;20281;-60
2021/04/26 04:39:05;;;;;;;;;;;;;;;6.76;66.54;99894.41;1795076;79;22337;-61
2021/04/26 04:41:41;;;;;;;;;;;;;;;6.71;66.69;99900.33;1768879;77;20175;-59
2021/04/26 04:44:09;;;;;;;;;;;;;;;6.69;66.63;99894.92;1804544;79;20109;-61
2021/04/26 04:46:37;;;;;;;;;;;;;;;6.69;66.63;99900.24;1801803;79;20136;-60
2021/04/26 04:49:13;;;;;;;;;;;;;;;6.71;66.70;99895.52;1801194;79;20164;-60
2021/04/26 04:51:43;;;;;;;;;;;;;;;6.72;66.35;99898.50;1798098;79;22281;-61
2021/04/26 04:54:12;;;;;;;;;;;;;;;6.72;65.67;99898.50;1802392;79;20155;-62
2021/04/26 04:56:41;;;;;;;;;;;;;;;6.69;65.45;99913.56;1802865;79;20508;-59
2021/04/26 04:59:09;;;;;;;;;;;;;;;6.65;65.18;99907.31;1800971;79;20233;-60
2021/04/26 05:01:39;;;;;;;;;;;;;;;6.62;64.84;99902.37;1801642;79;20509;-61
2021/04/26 05:04:25;;;;;;;;;;;;;;;6.59;64.52;99901.97;1801937;79;22297;-61
2021/04/26 05:07:11;;;;;;;;;;;;;;;6.49;64.07;99916.50;1800561;79;20505;-61
2021/04/26 05:09:57;;;;;;;;;;;;;;;6.39;64.00;99911.24;1801603;79;20217;-60
2021/04/26 05:12:45;;;;;;;;;;;;;;;6.29;63.93;99906.32;1797240;79;20716;-63
2021/04/26 05:15:30;;;;;;;;;;;;;;;6.14;63.85;99900.64;1800579;79;20218;-63
2021/04/26 05:17:57;;;;;;;;;;;;;;;6.01;64.03;99893.11;1800742;79;21205;-61
2021/04/26 05:20:26;;;;;;;;;;;;;;;5.93;64.38;99886.11;1802228;79;20224;-63
2021/04/26 05:22:56;;;;;;;;;;;;;;;5.87;64.58;99883.73;1797801;79;20492;-63
2021/04/26 05:25:24;;;;;;;;;;;;;;;5.82;65.06;99872.88;1800712;79;20218;-62
2021/04/26 05:27:52;;;;;;;;;;;;;;;5.84;65.33;99868.69;1796787;79;20228;-61
2021/04/26 05:30:21;;;;;;;;;;;;;;;5.87;65.41;99865.63;1801307;79;21210;-69
2021/04/26 05:32:49;;;;;;;;;;;;;;;5.89;65.56;99864.41;1794754;79;20157;-72
2021/04/26 05:35:18;;;;;;;;;;;;;;;5.94;65.54;99862.48;1757541;79;20557;-71
2021/04/26 05:37:48;;;;;;;;;;;;;;;5.99;65.50;99861.91;1788034;79;20528;-71
2021/04/26 05:40:16;;;;;;;;;;;;;;;6.05;65.39;99879.73;1788673;79;20267;-68
2021/04/26 05:42:46;;;;;;;;;;;;;;;6.10;65.67;99877.30;1788342;79;21244;-68
2021/04/26 05:45:18;;;;;;;;;;;;;;;6.14;65.75;99885.20;1778884;79;20290;-68
2021/04/26 05:47:58;;;;;;;;;;;;;;;6.17;65.93;99884.80;1784948;79;20135;-67
2021/04/26 05:50:27;;;;;;;;;;;;;;;6.23;65.91;99905.28;1784789;79;20129;-68
2021/04/26 05:52:55;;;;;;;;;;;;;;;6.26;65.79;99926.70;1789293;79;20228;-68
2021/04/26 05:55:24;;;;;;;;;;;;;;;6.28;65.68;99931.30;1786833;79;21304;-67
2021/04/26 05:57:51;;;;;;;;;;;;;;;6.20;65.37;99907.02;1791636;79;20283;-69
2021/04/26 06:00:20;;;;;;;;;;;;;;;6.04;65.36;99928.15;1788458;79;20159;-67
2021/04/26 06:02:55;;;;;;;;;;;;;;;5.94;65.31;99913.03;1828994;77;20215;-69
2021/04/26 06:05:23;;;;;;;;;;;;;;;5.73;65.16;99910.80;1803697;79;20525;-68
2021/04/26 06:07:52;;;;;;;;;;;;;;;5.58;65.01;99917.58;1768728;79;21433;-70
2021/04/26 06:10:20;;;;;;;;;;;;;;;5.43;65.04;99933.65;1710197;83;20178;-68
2021/04/26 06:12:47;;;;;;;;;;;;;;;5.34;64.96;99944.62;1711914;83;20244;-68
2021/04/26 06:15:15;;;;;;;;;;;;;;;5.23;65.00;99952.63;1706782;83;20193;-69
2021/04/26 06:17:43;;;;;;;;;;;;;;;5.14;65.14;99913.41;1712353;83;20236;-68
2021/04/26 06:20:11;;;;;;;;;;;;;;;5.01;64.98;99888.08;1675033;83;21424;-68
2021/04/26 06:22:39;;;;;;;;;;;;;;;4.86;65.31;99882.86;1708155;83;20241;-68
2021/04/26 06:25:07;;;;;;;;;;;;;;;4.74;65.58;99886.52;1712643;83;20159;-69
2021/04/26 06:27:36;;;;;;;;;;;;;;;4.60;66.14;99896.21;1720946;79;20271;-68
2021/04/26 06:30:05;;;;;;;;;;;;;;;4.60;66.53;99886.92;1802497;79;20179;-68
2021/04/26 06:32:33;;;;;;;;;;;;;;;4.62;66.61;99874.27;1803097;79;21209;-69
2021/04/26 06:35:01;;;;;;;;;;;;;;;4.56;66.48;99869.23;1802257;79;20129;-67
2021/04/26 06:37:30;;;;;;;;;;;;;;;4.47;66.86;99876.19;1798551;79;20242;-68
2021/04/26 06:39:58;;;;;;;;;;;;;;;4.38;67.15;99882.93;1801481;79;20491;-66
2021/04/26 06:42:26;;;;;;;;;;;;;;;4.31;67.46;99889.19;1800497;79;20291;-66
2021/04/26 06:44:54;;;;;;;;;;;;;;;4.36;67.87;99884.16;1802479;79;21271;-67
2021/04/26 06:47:23;;;;;;;;;;;;;;;4.45;67.37;99879.03;1778767;79;20136;-63
2021/04/26 06:49:51;;;;;;;;;;;;;;;4.40;67.71;99901.32;1792804;79;20259;-66
2021/04/26 06:52:19;;;;;;;;;;;;;;;4.45;67.40;99916.19;1799497;79;20510;-67
2021/04/26 06:54:49;;;;;;;;;;;;;;;4.47;67.00;99919.47;1800483;79;20248;-66
2021/04/26 06:57:17;;;;;;;;;;;;;;;4.44;66.59;99928.33;1806322;79;21189;-67
2021/04/26 06:59:45;;;;;;;;;;;;;;;4.34;66.69;99921.98;1802788;79;20220;-68
2021/04/26 07:02:13;;;;;;;;;;;;;;;4.28;67.05;99933.36;1794794;79;20135;-66
2021/04/26 07:04:41;;;;;;;;;;;;;;;4.31;67.22;99931.66;1787961;79;20191;-67
2021/04/26 07:07:09;;;;;;;;;;;;;;;4.41;67.13;99927.38;1794864;79;20250;-66
2021/04/26 07:09:37;;;;;;;;;;;;;;;4.46;67.00;99935.58;1795428;79;21450;-66
2021/04/26 07:12:06;;;;;;;;;;;;;;;4.48;66.96;99930.92;1795361;79;20736;-67
2021/04/26 07:14:34;;;;;;;;;;;;;;;4.50;67.12;99931.55;1793618;79;20537;-66
2021/04/26 07:17:02;;;;;;;;;;;;;;;4.55;67.16;99932.63;1790048;79;20507;-62
2021/04/26 07:19:30;;;;;;;;;;;;;;;4.59;66.98;99926.42;1770404;79;20251;-66
2021/04/26 07:21:58;;;;;;;;;;;;;;;4.62;67.66;99934.00;1791530;79;21260;-67
2021/04/26 07:24:26;;;;;;;;;;;;;;;4.65;67.44;99927.02;1783886;79;20227;-67
2021/04/26 07:26:54;;;;;;;;;;;;;;;4.67;67.20;99942.75;1792520;79;20139;-67
2021/04/26 07:29:22;;;;;;;;;;;;;;;4.64;67.44;99928.50;1787187;79;20248;-67
2021/04/26 07:31:49;;;;;;;;;;;;;;;4.61;67.73;99966.05;1791040;79;20144;-66
2021/04/26 07:34:18;;;;;;;;;;;;;;;4.63;67.92;99960.88;1793431;79;21209;-67
2021/04/26 07:36:45;;;;;;;;;;;;;;;4.70;68.16;99959.11;1788822;79;20606;-66
2021/04/26 07:39:15;;;;;;;;;;;;;;;4.82;68.19;99959.43;1793169;79;20193;-67
2021/04/26 07:41:42;;;;;;;;;;;;;;;4.85;67.80;99959.05;1790490;79;20259;-67
2021/04/26 07:44:10;;;;;;;;;;;;;;;4.81;67.45;99956.97;1794843;79;20133;-67
2021/04/26 07:46:39;;;;;;;;;;;;;;;4.74;67.69;99968.36;1792429;79;21139;-67
2021/04/26 07:52:37;;;;;;;;;;;;;;;4.71;68.15;99996.62;1794408;79;20152;-66
2021/04/26 07:58:37;;;;;;;;;;;;;;;4.60;68.15;99995.78;1793242;79;20213;-68
2021/04/26 08:01:05;;;;;;;;;;;;;;;4.57;68.20;100002.80;1789573;79;21308;-67
2021/04/26 08:03:33;;;;;;;;;;;;;;;4.57;68.28;100004.13;1791264;79;20302;-66
2021/04/26 08:06:04;;;;;;;;;;;;;;;4.62;68.44;100011.00;1794254;79;20110;-68
2021/04/26 08:08:32;;;;;;;;;;;;;;;4.64;68.39;100020.11;1791671;79;20171;-67
2021/04/26 08:10:59;;;;;;;;;;;;;;;4.62;68.05;99988.44;1787419;79;20293;-68
2021/04/26 08:13:28;;;;;;;;;;;;;;;4.51;68.16;100006.20;1766507;79;21015;-68
2021/04/26 08:15:57;;;;;;;;;;;;;;;4.43;68.44;100012.45;1788974;79;20220;-67
2021/04/26 08:18:25;;;;;;;;;;;;;;;4.42;68.66;100021.42;1793890;79;20157;-66
2021/04/26 08:20:53;;;;;;;;;;;;;;;4.45;68.76;100013.59;1794180;79;20300;-68
2021/04/26 08:23:23;;;;;;;;;;;;;;;4.46;68.78;100024.02;1756304;79;20216;-66
2021/04/26 08:25:52;;;;;;;;;;;;;;;4.52;68.78;100031.23;1761117;79;23524;-68
2021/04/26 08:28:20;;;;;;;;;;;;;;;4.58;68.59;100050.07;1795209;79;20561;-67
2021/04/26 08:30:49;;;;;;;;;;;;;;;4.63;68.57;100051.67;1789593;79;20179;-67
2021/04/26 08:33:20;;;;;;;;;;;;;;;4.65;68.25;100061.11;1790109;79;20241;-66
2021/04/26 08:35:50;;;;;;;;;;;;;;;4.66;68.38;100068.56;1790449;79;20213;-67
2021/04/26 08:38:21;;;;;;;;;;;;;;;4.72;68.52;100072.60;1788922;79;21372;-66
2021/04/26 08:40:49;;;;;;;;;;;;;;;4.81;68.35;100074.64;1791981;79;20476;-66
2021/04/26 08:43:18;;;;;;;;;;;;;;;4.88;67.90;100076.88;1789642;79;20287;-67
2021/04/26 08:45:46;;;;;;;;;;;;;;;4.88;67.67;100074.22;1791222;79;20121;-66
2021/04/26 08:48:15;;;;;;;;;;;;;;;4.86;67.66;100074.92;1789760;79;20233;-67
2021/04/26 08:50:43;;;;;;;;;;;;;;;4.86;67.57;100071.45;1777938;79;22267;-68
2021/04/26 08:53:11;;;;;;;;;;;;;;;4.86;67.37;100086.88;1789749;79;20159;-68
2021/04/26 08:55:39;;;;;;;;;;;;;;;4.86;67.44;100088.20;1791448;79;20571;-67
2021/04/26 09:01:38;;;;;;;;;;;;;;;4.90;66.96;100105.42;1789087;79;20529;-67
2021/04/26 09:07:25;;;;;;;;;;;;;;;4.78;67.09;100088.81;1769881;80;20234;-68
2021/04/26 09:13:37;;;;;;;;;;;;;;;4.79;66.92;100089.14;1770670;80;20167;-65
2021/04/26 09:19:35;;;;;;;;;;;;;;;4.96;67.31;100078.61;1775914;80;20154;-66
2021/04/26 09:25:35;;;;;;;;;;;;;;;5.01;67.13;100095.31;1774374;80;20210;-66
2021/04/26 09:31:21;;;;;;;;;;;;;;;5.10;67.13;100106.13;1775034;80;20158;-66
2021/04/26 09:37:23;;;;;;;;;;;;;;;5.30;67.26;100099.70;1771937;80;20533;-67
2021/04/26 09:43:22;;;;;;;;;;;;;;;5.30;65.81;100094.38;1775759;80;20751;-66
2021/04/26 09:49:25;;;;;;;;;;;;;;;5.13;66.27;100088.99;1770349;80;20147;-66
2021/04/26 09:55:29;;;;;;;;;;;;;;;5.11;66.27;100102.47;1771938;80;20132;-67
2021/04/26 09:57:57;;;;;;;;;;;;;;;5.27;66.25;100100.08;1776207;80;20140;-66
2021/04/26 10:00:26;;;;;;;;;;;;;;;5.42;66.41;100107.98;1776171;80;20159;-68
2021/04/26 10:02:55;;;;;;;;;;;;;;;5.60;66.08;100098.22;1790244;79;21264;-66
2021/04/26 10:05:23;;;;;;;;;;;;;;;5.73;65.73;100099.65;1788322;79;20151;-64
2021/04/26 10:07:51;;;;;;;;;;;;;;;5.88;64.72;100099.55;1795919;79;20133;-65
2021/04/26 10:10:20;;;;;;;;;;;;;;;6.00;64.40;100106.52;1801378;78;20227;-67
2021/04/26 10:12:49;;;;;;;;;;;;;;;6.12;63.35;100112.13;1798236;79;20168;-68
2021/04/26 10:15:17;;;;;;;;;;;;;;;6.16;63.24;100104.59;1788060;79;21212;-68
2021/04/26 10:17:45;;;;;;;;;;;;;;;6.21;62.79;100112.27;1730540;79;20143;-67
2021/04/26 10:20:15;;;;;;;;;;;;;;;6.29;62.76;100116.64;1774793;79;20215;-69
2021/04/26 10:22:46;;;;;;;;;;;;;;;6.37;62.78;100123.64;1802409;79;20516;-66
2021/04/26 10:25:20;;;;;;;;;;;;;;;6.47;62.06;100116.13;1800159;78;20222;-65
2021/04/26 10:27:48;;;;;;;;;;;;;;;6.52;60.26;100120.84;1767792;79;21275;-65
2021/04/26 10:30:17;;;;;;;;;;;;;;;6.42;59.81;100120.70;1798420;79;20128;-66
2021/04/26 10:32:56;;;;;;;;;;;;;;;6.30;60.52;100135.09;1752593;79;20250;-66
2021/04/26 10:35:48;;;;;;;;;;;;;;;6.33;61.30;100138.36;1791778;79;20496;-67
2021/04/26 10:38:40;;;;;;;;;;;;;;;6.40;60.50;100128.58;1800679;79;20227;-66
2021/04/26 10:41:14;;;;;;;;;;;;;;;6.38;60.22;100150.08;1798877;78;21213;-65
2021/04/26 10:43:42;;;;;;;;;;;;;;;6.43;60.45;100146.82;1797700;79;20133;-66
2021/04/26 10:52:25;;;;;;;;;;;;;;;6.29;59.27;100168.56;1792609;79;20231;-66
2021/04/26 10:55:06;;;;;;;;;;;;;;;6.42;59.87;100169.97;1818037;77;20202;-66
2021/04/26 10:57:47;;;;;;;;;;;;;;;6.49;59.30;100173.50;1813266;79;20220;-65
2021/04/26 11:00:26;;;;;;;;;;;;;;;6.54;58.66;100156.93;1783696;80;21194;-67
2021/04/26 11:03:09;;;;;;;;;;;;;;;6.52;58.79;100163.46;1784407;80;20206;-66
2021/04/26 11:05:44;;;;;;;;;;;;;;;6.54;59.15;100175.58;1785508;80;20171;-66
2021/04/26 11:08:34;;;;;;;;;;;;;;;6.62;59.31;100178.58;1786769;80;20155;-66
2021/04/26 11:11:24;;;;;;;;;;;;;;;6.68;59.01;100179.13;1772449;80;20170;-69
2021/04/26 11:13:56;;;;;;;;;;;;;;;6.70;58.64;100173.10;1785101;80;21214;-66
2021/04/26 11:16:32;;;;;;;;;;;;;;;6.70;58.39;100186.91;1778182;80;20143;-65
2021/04/26 11:19:11;;;;;;;;;;;;;;;6.71;58.52;100183.23;1783727;80;20543;-66
2021/04/26 11:21:48;;;;;;;;;;;;;;;6.74;58.29;100184.98;1788501;79;20231;-68
2021/04/26 11:24:30;;;;;;;;;;;;;;;6.81;58.25;100187.70;1787564;79;20595;-66
2021/04/26 11:27:19;;;;;;;;;;;;;;;6.90;57.92;100190.50;1791341;79;21196;-66
2021/04/26 11:29:52;;;;;;;;;;;;;;;7.00;57.76;100195.47;1786248;80;20238;-66
2021/04/26 11:32:20;;;;;;;;;;;;;;;7.08;57.04;100175.32;1786507;80;20250;-68
2021/04/26 11:35:00;;;;;;;;;;;;;;;7.07;57.21;100179.00;1786574;80;20147;-68
2021/04/26 11:37:27;;;;;;;;;;;;;;;7.08;55.83;100187.80;1788205;79;20874;-63
2021/04/26 11:39:56;;;;;;;;;;;;;;;7.05;55.99;100190.88;1786470;80;20226;-65
2021/04/26 11:42:29;;;;;;;;;;;;;;;7.12;56.44;100197.87;1786049;80;20207;-63
2021/04/26 11:44:57;;;;;;;;;;;;;;;7.18;56.07;100201.09;1783657;80;20280;-62
2021/04/26 11:47:25;;;;;;;;;;;;;;;7.18;55.90;100200.25;1783462;80;20222;-65
2021/04/26 11:49:56;;;;;;;;;;;;;;;7.18;55.71;100194.43;1786847;80;20239;-64
2021/04/26 11:52:24;;;;;;;;;;;;;;;7.23;56.14;100207.64;1786567;80;21158;-65
2021/04/26 11:55:05;;;;;;;;;;;;;;;7.31;55.80;100211.48;1777898;80;20172;-65
2021/04/26 11:57:46;;;;;;;;;;;;;;;7.30;55.31;100208.00;1771091;80;20257;-63
2021/04/26 12:00:30;;;;;;;;;;;;;;;7.27;55.37;100208.38;1773566;80;20239;-63
2021/04/26 12:03:03;;;;;;;;;;;;;;;7.29;55.17;100202.34;1774278;80;20743;-64
2021/04/26 12:05:32;;;;;;;;;;;;;;;7.35;55.59;100211.40;1775320;80;21245;-64
2021/04/26 12:08:00;;;;;;;;;;;;;;;7.49;55.42;100214.42;1775354;80;20155;-62
2021/04/26 12:10:32;;;;;;;;;;;;;;;7.57;54.44;100208.06;1772241;80;20280;-63
2021/04/26 12:13:02;;;;;;;;;;;;;;;7.58;55.58;100207.55;1775367;80;20245;-63
2021/04/26 12:15:31;;;;;;;;;;;;;;;7.67;55.89;100195.16;1685607;84;20370;-65
2021/04/26 12:18:00;;;;;;;;;;;;;;;7.71;54.08;100201.73;1685586;85;21210;-63
2021/04/26 12:20:36;;;;;;;;;;;;;;;7.69;53.90;100198.95;1685686;85;20342;-62
2021/04/26 12:23:17;;;;;;;;;;;;;;;7.68;53.66;100206.12;1803490;79;20209;-63
2021/04/26 12:25:45;;;;;;;;;;;;;;;7.62;54.13;100200.78;1769354;80;20186;-65
2021/04/26 12:28:16;;;;;;;;;;;;;;;7.65;54.83;100203.05;1767591;80;21212;-64
2021/04/26 12:30:49;;;;;;;;;;;;;;;7.73;54.50;100205.53;1766282;80;20113;-63
2021/04/26 12:33:24;;;;;;;;;;;;;;;7.79;54.09;100203.88;1773513;80;20151;-63
2021/04/26 12:35:53;;;;;;;;;;;;;;;7.78;53.67;100207.06;1738489;81;20232;-63
2021/04/26 12:38:24;;;;;;;;;;;;;;;7.81;54.11;100195.17;1773453;79;20221;-62
2021/04/26 12:40:53;;;;;;;;;;;;;;;7.86;54.27;100194.03;1767877;80;21207;-64
2021/04/26 12:43:21;;;;;;;;;;;;;;;7.91;54.18;100190.25;1770274;80;20666;-65
2021/04/26 12:45:49;;;;;;;;;;;;;;;7.94;53.92;100195.17;1770581;80;20220;-63
2021/04/26 12:48:19;;;;;;;;;;;;;;;7.96;53.88;100191.78;1768549;80;20181;-62
2021/04/26 12:50:48;;;;;;;;;;;;;;;7.96;53.44;100190.97;1770940;80;20571;-62
2021/04/26 12:53:27;;;;;;;;;;;;;;;7.95;54.14;100190.16;1770748;80;21310;-62
2021/04/26 12:56:10;;;;;;;;;;;;;;;8.05;54.39;100191.06;1769570;80;20142;-62
2021/04/26 12:58:40;;;;;;;;;;;;;;;8.13;53.58;100185.52;1754351;80;20312;-62
2021/04/26 13:01:17;;;;;;;;;;;;;;;8.21;54.19;100185.81;1731875;82;20248;-63
2021/04/26 13:03:53;;;;;;;;;;;;;;;8.32;53.29;100182.53;1730984;82;20280;-64
2021/04/26 13:06:31;;;;;;;;;;;;;;;8.38;52.55;100172.87;1729933;82;22163;-65
2021/04/26 13:09:01;;;;;;;;;;;;;;;8.39;52.42;100169.98;1731178;82;20161;-62
2021/04/26 13:11:36;;;;;;;;;;;;;;;8.44;52.76;100173.89;1732277;82;20268;-64
2021/04/26 13:14:11;;;;;;;;;;;;;;;8.47;53.17;100166.82;1731956;82;20233;-64
2021/04/26 13:16:42;;;;;;;;;;;;;;;8.50;53.16;100178.42;1732263;82;20164;-64
2021/04/26 13:19:11;;;;;;;;;;;;;;;8.52;52.35;100168.34;1703673;82;21209;-62
2021/04/26 13:21:43;;;;;;;;;;;;;;;8.50;52.50;100169.07;1729862;82;20262;-62
2021/04/26 13:24:13;;;;;;;;;;;;;;;8.52;52.83;100171.81;1719809;82;20233;-64
2021/04/26 13:26:42;;;;;;;;;;;;;;;8.56;52.27;100173.05;1721121;82;20304;-63
2021/04/26 13:29:14;;;;;;;;;;;;;;;8.43;50.83;100173.05;1720649;82;20239;-63
2021/04/26 13:31:44;;;;;;;;;;;;;;;8.22;51.66;100173.59;1722043;82;22152;-64
2021/04/26 13:34:12;;;;;;;;;;;;;;;8.19;52.01;100177.20;1718419;82;20152;-63
2021/04/26 13:36:40;;;;;;;;;;;;;;;8.22;52.76;100168.78;1721592;82;20271;-63
2021/04/26 13:39:10;;;;;;;;;;;;;;;8.25;52.63;100164.35;1720514;82;20971;-62
2021/04/26 13:41:39;;;;;;;;;;;;;;;8.30;52.90;100160.53;1720527;82;20140;-64
2021/04/26 13:44:07;;;;;;;;;;;;;;;8.34;52.11;100163.09;1720025;82;21312;-64
2021/04/26 13:46:35;;;;;;;;;;;;;;;8.31;51.90;100163.52;1720942;81;20293;-66
2021/04/26 13:49:04;;;;;;;;;;;;;;;8.33;52.23;100165.98;1720403;82;20118;-63
2021/04/26 13:51:32;;;;;;;;;;;;;;;8.36;52.81;100165.56;1721648;82;20166;-68
2021/04/26 13:54:01;;;;;;;;;;;;;;;8.42;52.64;100167.39;1723575;82;20226;-62
2021/04/26 13:56:28;;;;;;;;;;;;;;;8.47;52.81;100165.48;1723651;82;21216;-63
2021/04/26 13:59:00;;;;;;;;;;;;;;;8.55;53.21;100163.41;1722545;81;20348;-62